Time;durP1;ratioP1;P1;durP2;ratioP2;P2;SDS_P1;SDS_P2;PMS_P1;PMS_P2;Temp;Humidity;BMP_temperature;BMP_pressure;BME280_temperature;BME280_humidity;BME280_pressure;Samples;Min_cycle;Max_cycle;Signal;HPM_P1;HPM_P2
2023/03/07 00:01:03;;;;;;;0.80;0.80;;;2.80;99.90;;;;;;4934807;28;20050;-87
2023/03/07 00:03:28;;;;;;;;;;;2.90;99.90;;;;;;4948693;28;20380;-86
2023/03/07 00:06:07;;;;;;;2.80;2.60;;;3.40;99.90;;;;;;4953040;28;19922;-85
2023/03/07 00:08:33;;;;;;;0.80;0.80;;;2.90;99.90;;;;;;4968974;28;20039;-88
2023/03/07 00:11:07;;;;;;;0.80;0.80;;;2.90;99.90;;;;;;4946820;28;20133;-87
2023/03/07 00:13:35;;;;;;;0.90;0.90;;;2.90;99.90;;;;;;4946656;28;20500;-85
2023/03/07 00:16:02;;;;;;;2.38;1.92;;;4.10;99.90;;;;;;4965621;28;20121;-86
2023/03/07 00:18:28;;;;;;;0.60;0.60;;;2.90;99.90;;;;;;4954350;28;20073;-86
2023/03/07 00:20:58;;;;;;;0.80;0.80;;;2.90;99.90;;;;;;4969509;28;20146;-85
2023/03/07 00:23:24;;;;;;;0.70;0.70;;;2.90;99.90;;;;;;4950017;28;20039;-84
2023/03/07 00:26:02;;;;;;;0.73;0.73;;;2.80;99.90;;;;;;4952614;28;20548;-88
2023/03/07 00:28:28;;;;;;;0.60;0.60;;;2.80;99.90;;;;;;4957905;28;20100;-89
2023/03/07 00:30:58;;;;;;;0.70;0.70;;;2.90;99.90;;;;;;4936846;28;20044;-87
2023/03/07 00:33:23;;;;;;;1.55;1.45;;;2.80;99.90;;;;;;4966087;28;20092;-86
2023/03/07 00:35:57;;;;;;;0.88;0.88;;;2.90;99.90;;;;;;4967498;28;20400;-85
2023/03/07 00:38:25;;;;;;;0.95;0.95;;;2.70;99.90;;;;;;4950440;28;20077;-89
2023/03/07 00:41:05;;;;;;;0.65;0.65;;;3.70;99.90;;;;;;4957150;28;20043;-86
2023/03/07 00:43:32;;;;;;;0.70;0.70;;;2.80;99.90;;;;;;4969199;28;20030;-86
2023/03/07 00:45:59;;;;;;;0.80;0.80;;;2.80;99.90;;;;;;4961102;28;20133;-87
2023/03/07 00:48:25;;;;;;;0.50;0.50;;;3.00;99.90;;;;;;4966401;28;20449;-86
2023/03/07 00:50:52;;;;;;;0.63;0.63;;;2.70;99.90;;;;;;4976666;28;20124;-85
2023/03/07 00:53:18;;;;;;;0.50;0.50;;;2.80;99.90;;;;;;4972194;28;20091;-87
2023/03/07 00:55:54;;;;;;;0.70;0.70;;;3.00;99.90;;;;;;4941004;28;20039;-88
2023/03/07 00:58:20;;;;;;;0.70;0.70;;;3.40;99.90;;;;;;4937443;29;20472;-88
2023/03/07 01:00:46;;;;;;;1.17;1.10;;;4.20;99.90;;;;;;4939173;28;20043;-87
2023/03/07 01:03:11;;;;;;;0.60;0.60;;;3.00;99.90;;;;;;4952010;28;20114;-88
2023/03/07 01:05:38;;;;;;;0.70;0.70;;;4.40;99.90;;;;;;4963782;28;20045;-88
2023/03/07 01:08:04;;;;;;;0.70;0.70;;;3.90;99.90;;;;;;4968753;28;20775;-88
2023/03/07 01:10:32;;;;;;;0.60;0.60;;;3.20;99.90;;;;;;4923318;28;20047;-85
2023/03/07 01:12:58;;;;;;;0.60;0.60;;;3.20;99.90;;;;;;4935749;29;20047;-87
2023/03/07 01:15:24;;;;;;;0.93;0.93;;;3.20;99.90;;;;;;4935712;28;20047;-86
2023/03/07 01:17:50;;;;;;;1.05;1.02;;;3.20;99.90;;;;;;4969574;28;20055;-90
2023/03/07 01:20:16;;;;;;;0.57;0.57;;;3.20;99.90;;;;;;4949206;28;20147;-85
2023/03/07 01:22:41;;;;;;;1.13;1.13;;;3.10;99.90;;;;;;4938794;28;20117;-84
2023/03/07 01:25:07;;;;;;;0.68;0.68;;;3.50;99.90;;;;;;4959149;28;20102;-87
2023/03/07 01:27:33;;;;;;;;;;;3.10;99.90;;;;;;4970947;28;20092;-89
2023/03/07 01:29:59;;;;;;;0.70;0.70;;;3.00;99.90;;;;;;4969423;28;19918;-88
2023/03/07 01:32:24;;;;;;;0.60;0.60;;;3.20;99.90;;;;;;4939426;28;20473;-91
2023/03/07 01:34:51;;;;;;;0.60;0.60;;;3.00;99.90;;;;;;4960511;28;20034;-84
2023/03/07 01:37:18;;;;;;;0.70;0.70;;;3.20;99.90;;;;;;4952992;28;20047;-84
2023/03/07 01:39:43;;;;;;;0.70;0.70;;;2.90;99.90;;;;;;4967372;28;20039;-85
2023/03/07 01:42:09;;;;;;;0.63;0.63;;;3.50;99.90;;;;;;4987722;28;20180;-87
2023/03/07 01:44:59;;;;;;;0.70;0.70;;;2.90;99.90;;;;;;4956105;28;20036;-88
2023/03/07 01:47:25;;;;;;;0.70;0.70;;;2.60;99.90;;;;;;4955307;28;20047;-86
2023/03/07 01:49:51;;;;;;;1.15;1.15;;;2.90;99.90;;;;;;4958392;28;20053;-89
2023/03/07 01:52:22;;;;;;;0.70;0.70;;;2.90;99.90;;;;;;4937580;28;20444;-88
2023/03/07 01:54:51;;;;;;;0.70;0.70;;;3.00;99.90;;;;;;4960305;28;20039;-86
2023/03/07 01:57:25;;;;;;;0.68;0.68;;;2.90;99.90;;;;;;4965060;28;20039;-89
2023/03/07 01:59:55;;;;;;;0.68;0.68;;;3.30;99.90;;;;;;4951714;28;20126;-89
2023/03/07 02:02:21;;;;;;;0.60;0.60;;;2.90;99.90;;;;;;4969659;28;20039;-89
2023/03/07 02:04:59;;;;;;;0.70;0.70;;;2.80;99.90;;;;;;4935354;28;20035;-89
2023/03/07 02:07:31;;;;;;;0.70;0.70;;;2.70;99.90;;;;;;4976457;28;20579;-86
2023/03/07 02:09:58;;;;;;;0.60;0.60;;;2.70;99.90;;;;;;4954174;28;20049;-86
2023/03/07 02:12:26;;;;;;;0.50;0.50;;;4.00;99.90;;;;;;4953258;28;20081;-89
2023/03/07 02:14:52;;;;;;;0.70;0.70;;;4.00;99.90;;;;;;4966965;28;20042;-88
2023/03/07 02:17:18;;;;;;;0.70;0.70;;;2.70;99.90;;;;;;4941314;28;20118;-89
2023/03/07 02:19:47;;;;;;;;;;;2.70;99.90;;;;;;4951543;28;20039;-86
2023/03/07 02:22:16;;;;;;;5.07;2.35;;;2.70;99.90;;;;;;4964846;28;20059;-87
2023/03/07 02:24:49;;;;;;;0.60;0.60;;;2.70;99.90;;;;;;4961845;28;20122;-89
2023/03/07 02:27:15;;;;;;;0.70;0.70;;;2.80;99.90;;;;;;4946240;28;20039;-90
2023/03/07 02:29:41;;;;;;;0.70;0.70;;;2.80;99.90;;;;;;4951357;28;20042;-85
2023/03/07 02:32:07;;;;;;;0.70;0.70;;;3.30;99.90;;;;;;4950375;28;20051;-85
2023/03/07 02:34:32;;;;;;;;;;;3.00;99.90;;;;;;4966569;28;20093;-85
2023/03/07 02:37:05;;;;;;;0.70;0.70;;;3.60;99.90;;;;;;4969093;28;19922;-86
2023/03/07 02:39:32;;;;;;;0.65;0.65;;;2.70;99.90;;;;;;4950843;28;20046;-86
2023/03/07 02:42:05;;;;;;;0.70;0.70;;;2.60;99.90;;;;;;4964762;28;20047;-86
2023/03/07 02:44:31;;;;;;;0.70;0.70;;;2.50;99.90;;;;;;4946166;28;20444;-88
2023/03/07 02:46:57;;;;;;;0.50;0.50;;;2.50;99.90;;;;;;4964044;28;20089;-85
2023/03/07 02:49:23;;;;;;;0.60;0.60;;;2.40;99.90;;;;;;4952053;28;20130;-86
2023/03/07 02:51:48;;;;;;;0.60;0.60;;;2.40;99.90;;;;;;5030700;28;20071;-86
2023/03/07 02:54:14;;;;;;;0.60;0.60;;;2.60;99.90;;;;;;4926793;28;20039;-88
2023/03/07 02:56:40;;;;;;;0.68;0.68;;;3.00;99.90;;;;;;5037600;28;20070;-86
2023/03/07 02:59:06;;;;;;;;;;;2.90;99.90;;;;;;4923300;28;20035;-87
2023/03/07 03:01:31;;;;;;;0.70;0.70;;;2.50;99.90;;;;;;4939345;28;20355;-86
2023/03/07 03:03:57;;;;;;;0.80;0.80;;;2.50;99.90;;;;;;4937815;28;20050;-87
2023/03/07 03:06:23;;;;;;;0.90;0.90;;;3.40;99.90;;;;;;4942096;28;20047;-87
2023/03/07 03:08:49;;;;;;;0.60;0.60;;;2.40;99.90;;;;;;4949174;28;20054;-88
2023/03/07 03:11:15;;;;;;;0.70;0.70;;;2.40;99.90;;;;;;5034896;28;20046;-87
2023/03/07 03:13:40;;;;;;;0.75;0.75;;;1.90;99.90;;;;;;4946384;28;20074;-87
2023/03/07 03:16:06;;;;;;;0.70;0.70;;;2.40;99.90;;;;;;4908417;28;20035;-86
2023/03/07 03:18:32;;;;;;;0.60;0.60;;;2.30;99.90;;;;;;4937172;28;20177;-87
2023/03/07 03:20:58;;;;;;;0.80;0.80;;;2.40;99.90;;;;;;4920172;28;20597;-87
2023/03/07 03:23:27;;;;;;;0.80;0.80;;;2.60;99.90;;;;;;4935218;28;20484;-86
2023/03/07 03:26:00;;;;;;;0.52;0.52;;;3.40;99.90;;;;;;4949948;28;20136;-87
2023/03/07 03:28:26;;;;;;;0.70;0.70;;;2.50;99.90;;;;;;4951257;28;20132;-87
2023/03/07 03:30:59;;;;;;;0.70;0.70;;;2.80;99.90;;;;;;4945256;28;20508;-88
2023/03/07 03:33:28;;;;;;;0.70;0.70;;;2.20;99.90;;;;;;4943972;28;20054;-87
2023/03/07 03:35:58;;;;;;;0.68;0.68;;;3.50;99.90;;;;;;4934984;28;20045;-88
2023/03/07 03:38:24;;;;;;;0.65;0.65;;;2.30;99.90;;;;;;5007650;28;20080;-87
2023/03/07 03:40:50;;;;;;;0.70;0.70;;;3.50;99.90;;;;;;4948916;28;20078;-86
2023/03/07 03:43:16;;;;;;;0.75;0.75;;;2.20;99.90;;;;;;4933204;28;20163;-87
2023/03/07 03:45:42;;;;;;;0.60;0.60;;;3.30;99.90;;;;;;5034954;28;20050;-87
2023/03/07 03:48:08;;;;;;;0.63;0.63;;;2.80;99.90;;;;;;4953104;28;20399;-90
2023/03/07 03:50:34;;;;;;;0.70;0.70;;;3.10;99.90;;;;;;4938013;28;20513;-89
2023/03/07 03:53:01;;;;;;;0.80;0.80;;;2.30;99.90;;;;;;4948458;28;20602;-86
2023/03/07 03:55:27;;;;;;;0.68;0.68;;;2.60;99.90;;;;;;4934324;28;20042;-86
2023/03/07 03:57:53;;;;;;;0.80;0.80;;;2.30;99.90;;;;;;4949885;28;20039;-88
2023/03/07 04:00:19;;;;;;;0.80;0.80;;;2.30;99.90;;;;;;4938590;28;20047;-86
2023/03/07 04:02:45;;;;;;;0.60;0.60;;;2.30;99.90;;;;;;4946959;28;20032;-87
2023/03/07 04:05:12;;;;;;;0.70;0.70;;;2.60;99.90;;;;;;4948923;28;20399;-87
2023/03/07 04:07:38;;;;;;;2.38;1.42;;;2.10;99.90;;;;;;4935540;28;20039;-87
2023/03/07 04:10:04;;;;;;;0.60;0.60;;;2.20;99.90;;;;;;4951945;28;20093;-86
2023/03/07 04:12:31;;;;;;;0.77;0.77;;;2.20;99.90;;;;;;4970269;28;20044;-84
2023/03/07 04:14:56;;;;;;;0.60;0.60;;;3.10;99.90;;;;;;4966289;28;20036;-87
2023/03/07 04:17:22;;;;;;;0.77;0.77;;;2.30;99.90;;;;;;4947161;28;20553;-85
2023/03/07 04:19:48;;;;;;;0.60;0.60;;;2.30;99.90;;;;;;4966147;28;20035;-85
2023/03/07 04:22:13;;;;;;;0.85;0.85;;;2.40;99.90;;;;;;4950673;28;20073;-85
2023/03/07 04:24:39;;;;;;;0.80;0.80;;;2.40;99.90;;;;;;4940704;28;20073;-86
2023/03/07 04:27:06;;;;;;;0.80;0.80;;;2.30;99.90;;;;;;4924564;28;20050;-85
2023/03/07 04:29:32;;;;;;;0.60;0.60;;;2.50;99.90;;;;;;4946007;28;20046;-86
2023/03/07 04:31:58;;;;;;;0.70;0.70;;;2.40;99.90;;;;;;4957653;28;20043;-85
2023/03/07 04:34:24;;;;;;;0.73;0.73;;;2.40;99.90;;;;;;4950288;29;20045;-85
2023/03/07 04:36:50;;;;;;;0.70;0.70;;;2.40;99.90;;;;;;4971669;28;20042;-84
2023/03/07 04:39:16;;;;;;;0.60;0.60;;;2.30;99.90;;;;;;4967968;28;20046;-88
2023/03/07 04:41:41;;;;;;;0.80;0.80;;;2.40;99.90;;;;;;4938196;28;20085;-86
2023/03/07 04:44:07;;;;;;;0.80;0.80;;;3.10;99.90;;;;;;4956375;28;20459;-84
2023/03/07 04:46:33;;;;;;;0.80;0.80;;;2.70;99.90;;;;;;4931320;28;20129;-85
2023/03/07 04:48:58;;;;;;;0.70;0.70;;;2.40;99.90;;;;;;4952312;28;20035;-84
2023/03/07 04:51:24;;;;;;;0.68;0.68;;;2.40;99.90;;;;;;4951302;28;20121;-86
2023/03/07 04:53:50;;;;;;;0.85;0.85;;;2.90;99.90;;;;;;4936472;28;20100;-86
2023/03/07 04:56:16;;;;;;;0.70;0.70;;;2.30;99.90;;;;;;4939007;28;20096;-86
2023/03/07 04:58:43;;;;;;;0.73;0.73;;;2.30;99.90;;;;;;4969811;28;20097;-89
2023/03/07 05:01:09;;;;;;;0.70;0.70;;;2.40;99.90;;;;;;4955267;28;20395;-87
2023/03/07 05:03:35;;;;;;;;;;;2.40;99.90;;;;;;4939856;28;20126;-87
2023/03/07 05:06:07;;;;;;;0.70;0.70;;;2.50;99.90;;;;;;4941008;28;20009;-86
2023/03/07 05:08:33;;;;;;;0.63;0.63;;;2.50;99.90;;;;;;4969261;28;20039;-90
2023/03/07 05:10:59;;;;;;;0.60;0.60;;;2.60;99.90;;;;;;4941838;28;20126;-90
2023/03/07 05:13:25;;;;;;;0.70;0.70;;;3.50;99.90;;;;;;5015638;28;20119;-86
2023/03/07 05:15:55;;;;;;;1.45;1.45;;;4.60;99.90;;;;;;4951753;28;20043;-85
2023/03/07 05:18:22;;;;;;;0.65;0.65;;;3.70;99.90;;;;;;4943942;28;20047;-88
2023/03/07 05:20:48;;;;;;;0.60;0.60;;;3.40;99.90;;;;;;4960468;28;20070;-86
2023/03/07 05:23:15;;;;;;;0.70;0.70;;;4.00;99.90;;;;;;4954672;28;20072;-84
2023/03/07 05:25:40;;;;;;;0.65;0.65;;;3.60;99.90;;;;;;4967926;28;20130;-84
2023/03/07 05:28:06;;;;;;;1.58;1.48;;;2.60;99.90;;;;;;5037488;28;20456;-85
2023/03/07 05:30:33;;;;;;;0.70;0.70;;;2.60;99.90;;;;;;4953842;28;20047;-84
2023/03/07 05:32:59;;;;;;;0.80;0.80;;;2.50;99.90;;;;;;5035915;28;20089;-87
2023/03/07 05:35:24;;;;;;;0.73;0.73;;;3.80;99.90;;;;;;4951237;28;20035;-90
2023/03/07 05:37:51;;;;;;;1.15;1.15;;;3.90;99.90;;;;;;4963238;28;20050;-86
2023/03/07 05:40:17;;;;;;;0.60;0.60;;;2.60;99.90;;;;;;4966008;28;20047;-86
2023/03/07 05:42:43;;;;;;;0.80;0.80;;;2.60;99.90;;;;;;4940122;28;20035;-86
2023/03/07 05:45:10;;;;;;;1.00;1.00;;;3.30;99.90;;;;;;4951464;28;20398;-87
2023/03/07 05:47:37;;;;;;;0.70;0.70;;;2.50;99.90;;;;;;4939069;28;20035;-86
2023/03/07 05:50:05;;;;;;;0.60;0.60;;;2.40;99.90;;;;;;5029824;28;20920;-90
2023/03/07 05:52:31;;;;;;;0.60;0.60;;;2.40;99.90;;;;;;4967316;28;20085;-85
2023/03/07 05:54:56;;;;;;;0.82;0.82;;;2.40;99.90;;;;;;4968537;28;20500;-87
2023/03/07 05:57:22;;;;;;;0.80;0.80;;;2.30;99.90;;;;;;4968819;28;20047;-88
2023/03/07 05:59:48;;;;;;;;;;;2.30;99.90;;;;;;4942963;28;20027;-86
2023/03/07 06:02:14;;;;;;;0.70;0.70;;;2.30;99.90;;;;;;4945116;28;19922;-90
2023/03/07 06:04:40;;;;;;;0.70;0.70;;;3.40;99.90;;;;;;4935333;28;20047;-85
2023/03/07 06:07:07;;;;;;;0.70;0.70;;;2.40;99.90;;;;;;4941395;28;20075;-87
2023/03/07 06:09:33;;;;;;;0.70;0.70;;;2.40;99.90;;;;;;4951428;28;20038;-85
2023/03/07 06:11:59;;;;;;;0.75;0.75;;;2.30;99.90;;;;;;4963618;28;20058;-85
2023/03/07 06:14:24;;;;;;;0.70;0.70;;;2.20;99.90;;;;;;4968816;28;20377;-85
2023/03/07 06:16:50;;;;;;;0.60;0.60;;;2.60;99.90;;;;;;4931617;28;20054;-86
2023/03/07 06:19:16;;;;;;;0.60;0.60;;;1.80;99.90;;;;;;4949979;28;20118;-85
2023/03/07 06:21:43;;;;;;;0.80;0.80;;;1.60;99.90;;;;;;4934956;28;20050;-86
2023/03/07 06:24:08;;;;;;;1.33;1.33;;;2.90;99.90;;;;;;4968487;28;20035;-88
2023/03/07 06:26:34;;;;;;;0.80;0.80;;;1.70;99.90;;;;;;4920237;28;20123;-86
2023/03/07 06:29:00;;;;;;;0.80;0.80;;;1.70;99.90;;;;;;4948987;28;20519;-87
2023/03/07 06:31:26;;;;;;;0.70;0.70;;;1.80;99.90;;;;;;4954417;28;20043;-89
2023/03/07 06:33:52;;;;;;;0.70;0.70;;;2.70;99.90;;;;;;4950986;28;20043;-87
2023/03/07 06:36:18;;;;;;;;;;;1.90;99.90;;;;;;4951487;28;20042;-86
2023/03/07 06:38:44;;;;;;;0.60;0.60;;;2.00;99.90;;;;;;4954782;28;19925;-88
2023/03/07 06:41:10;;;;;;;0.77;0.77;;;2.00;99.90;;;;;;4938897;28;20055;-83
2023/03/07 06:43:36;;;;;;;0.70;0.70;;;2.40;99.90;;;;;;4952799;28;20124;-87
2023/03/07 06:46:02;;;;;;;0.80;0.80;;;2.10;99.90;;;;;;4963495;28;20074;-88
2023/03/07 06:48:28;;;;;;;0.80;0.80;;;2.60;99.90;;;;;;4966007;28;20044;-87
2023/03/07 06:50:54;;;;;;;0.70;0.70;;;2.10;99.90;;;;;;4936758;28;20038;-84
2023/03/07 06:53:20;;;;;;;0.80;0.80;;;1.80;99.90;;;;;;4956099;28;20554;-88
2023/03/07 06:55:49;;;;;;;;;;;2.20;99.90;;;;;;4991127;28;20049;-85
2023/03/07 06:58:15;;;;;;;0.70;0.70;;;2.20;99.90;;;;;;4937743;28;19918;-86
2023/03/07 07:00:41;;;;;;;0.75;0.75;;;2.20;99.90;;;;;;4964125;28;20051;-86
2023/03/07 07:03:07;;;;;;;0.80;0.80;;;2.30;99.90;;;;;;4935235;28;20061;-86
2023/03/07 07:05:32;;;;;;;0.70;0.70;;;2.30;99.90;;;;;;4969656;28;20096;-86
2023/03/07 07:07:58;;;;;;;0.80;0.80;;;2.40;99.90;;;;;;4936155;28;20047;-84
2023/03/07 07:10:24;;;;;;;0.80;0.80;;;2.10;99.90;;;;;;4935795;28;20142;-85
2023/03/07 07:12:55;;;;;;;0.60;0.60;;;3.60;99.90;;;;;;4941435;28;20122;-88
2023/03/07 07:15:21;;;;;;;1.45;1.42;;;2.30;99.90;;;;;;4968503;28;20047;-88
2023/03/07 07:17:47;;;;;;;0.73;0.73;;;2.30;99.90;;;;;;4955335;28;20070;-87
2023/03/07 07:20:13;;;;;;;0.70;0.70;;;2.40;99.90;;;;;;4929072;28;20038;-88
2023/03/07 07:22:39;;;;;;;0.70;0.70;;;2.40;99.90;;;;;;5045917;28;20043;-85
2023/03/07 07:25:05;;;;;;;0.70;0.70;;;2.60;99.90;;;;;;4977910;28;20043;-88
2023/03/07 07:27:30;;;;;;;;;;;2.40;99.90;;;;;;4934952;28;20047;-86
2023/03/07 07:29:56;;;;;;;0.77;0.77;;;2.50;99.90;;;;;;4955095;28;19925;-86
2023/03/07 07:32:22;;;;;;;0.70;0.70;;;3.40;99.90;;;;;;4956618;28;20043;-86
2023/03/07 07:34:47;;;;;;;0.70;0.70;;;2.50;99.90;;;;;;4942660;28;20184;-87
2023/03/07 07:37:13;;;;;;;0.70;0.70;;;2.50;99.90;;;;;;4949807;28;20039;-87
2023/03/07 07:39:42;;;;;;;0.75;0.75;;;2.50;99.90;;;;;;4925071;28;20664;-86
2023/03/07 07:42:09;;;;;;;0.60;0.60;;;2.50;99.90;;;;;;4940086;28;20487;-88
2023/03/07 07:44:34;;;;;;;0.80;0.80;;;2.60;99.90;;;;;;4965250;28;20495;-88
2023/03/07 07:47:01;;;;;;;0.80;0.80;;;2.50;99.90;;;;;;4937088;28;20053;-86
2023/03/07 07:49:26;;;;;;;;;;;2.60;99.90;;;;;;4939852;28;20046;-86
2023/03/07 07:51:52;;;;;;;0.80;0.80;;;2.50;99.90;;;;;;4945260;28;19922;-87
2023/03/07 07:54:18;;;;;;;0.80;0.80;;;2.50;99.90;;;;;;4954106;28;20510;-85
2023/03/07 07:56:44;;;;;;;0.60;0.60;;;2.50;99.90;;;;;;4950179;28;20131;-84
2023/03/07 07:59:09;;;;;;;0.70;0.70;;;2.50;99.90;;;;;;4945018;28;20103;-83
2023/03/07 08:01:35;;;;;;;0.60;0.60;;;2.60;99.90;;;;;;4916863;28;20050;-84
2023/03/07 08:04:01;;;;;;;0.70;0.70;;;2.70;99.90;;;;;;4963274;28;20047;-84
2023/03/07 08:06:27;;;;;;;0.70;0.70;;;2.70;99.90;;;;;;4949230;28;20055;-83
2023/03/07 08:08:54;;;;;;;0.70;0.70;;;2.70;99.90;;;;;;4934686;28;20053;-84
2023/03/07 08:11:21;;;;;;;0.68;0.68;;;2.70;99.90;;;;;;4927708;28;20043;-83
2023/03/07 08:13:46;;;;;;;0.70;0.70;;;2.80;99.90;;;;;;4950183;28;20376;-83
2023/03/07 08:16:18;;;;;;;0.77;0.77;;;2.80;99.90;;;;;;4918166;28;20046;-83
2023/03/07 08:18:51;;;;;;;1.60;1.50;;;2.90;99.90;;;;;;4974919;28;20537;-83
2023/03/07 08:21:17;;;;;;;0.65;0.65;;;2.90;99.90;;;;;;4962085;28;20073;-84
2023/03/07 08:23:43;;;;;;;0.60;0.60;;;3.10;99.90;;;;;;4952654;28;20057;-83
2023/03/07 08:26:12;;;;;;;0.70;0.70;;;4.10;99.90;;;;;;4947588;28;20047;-84
2023/03/07 08:28:38;;;;;;;0.43;0.43;;;3.10;99.90;;;;;;4943504;28;20050;-84
2023/03/07 08:31:12;;;;;;;0.60;0.60;;;3.00;99.90;;;;;;4964778;28;20396;-83
2023/03/07 08:33:38;;;;;;;0.63;0.63;;;3.00;99.90;;;;;;4940706;28;20588;-82
2023/03/07 08:36:05;;;;;;;0.73;0.73;;;2.90;99.90;;;;;;5030063;28;20040;-82
2023/03/07 08:38:31;;;;;;;0.70;0.70;;;2.80;99.90;;;;;;4967424;28;20633;-83
2023/03/07 08:41:00;;;;;;;;;;;2.60;99.90;;;;;;4967425;28;20500;-84
2023/03/07 08:43:31;;;;;;;0.65;0.65;;;2.60;99.90;;;;;;4962401;28;19922;-83
2023/03/07 08:45:57;;;;;;;0.70;0.70;;;2.90;99.90;;;;;;4950129;28;20077;-83
2023/03/07 08:48:23;;;;;;;0.73;0.73;;;2.40;99.90;;;;;;4966031;28;20046;-83
2023/03/07 08:50:49;;;;;;;0.60;0.60;;;2.50;99.90;;;;;;4948120;28;20051;-83
2023/03/07 08:53:15;;;;;;;0.75;0.75;;;2.50;99.90;;;;;;4929604;28;20403;-84
2023/03/07 08:55:42;;;;;;;;;;;3.00;99.90;;;;;;4911541;28;20437;-84
2023/03/07 08:58:08;;;;;;;0.50;0.50;;;3.10;99.90;;;;;;4966296;28;20287;-84
2023/03/07 09:00:34;;;;;;;;;;;2.70;99.90;;;;;;4942005;28;20043;-83
2023/03/07 09:03:00;;;;;;;1.15;1.15;;;2.80;99.90;;;;;;4930763;28;19926;-82
2023/03/07 09:05:27;;;;;;;0.80;0.80;;;4.10;99.90;;;;;;4965360;28;20365;-84
2023/03/07 09:07:54;;;;;;;0.68;0.68;;;3.30;99.90;;;;;;4950174;28;20130;-84
2023/03/07 09:10:20;;;;;;;0.60;0.60;;;3.00;99.90;;;;;;4969482;28;20051;-83
2023/03/07 09:12:47;;;;;;;0.70;0.70;;;2.90;99.90;;;;;;4965411;28;20042;-84
2023/03/07 09:15:13;;;;;;;0.75;0.75;;;2.90;99.90;;;;;;5038544;28;20034;-84
2023/03/07 09:17:38;;;;;;;0.50;0.50;;;3.00;99.90;;;;;;4968775;28;20039;-84
2023/03/07 09:20:05;;;;;;;0.70;0.70;;;4.40;99.90;;;;;;4969139;28;20053;-84
2023/03/07 09:22:31;;;;;;;0.60;0.60;;;2.90;99.90;;;;;;4940716;28;20049;-84
2023/03/07 09:24:57;;;;;;;0.70;0.70;;;3.90;99.90;;;;;;4965139;28;20050;-84
2023/03/07 09:27:23;;;;;;;0.75;0.75;;;2.80;99.90;;;;;;4896009;28;20047;-84
2023/03/07 09:29:48;;;;;;;0.70;0.70;;;2.80;99.90;;;;;;4918372;28;20082;-83
2023/03/07 09:32:14;;;;;;;0.50;0.50;;;2.60;99.90;;;;;;4934174;28;20285;-84
2023/03/07 09:34:40;;;;;;;0.73;0.73;;;2.80;99.90;;;;;;4969990;28;20035;-84
2023/03/07 09:37:06;;;;;;;0.80;0.80;;;2.80;99.90;;;;;;4928395;28;21639;-83
2023/03/07 09:39:32;;;;;;;0.63;0.63;;;2.90;99.90;;;;;;4952494;28;20035;-84
2023/03/07 09:42:19;;;;;;;0.70;0.70;;;3.00;99.90;;;;;;4928448;28;20165;-84
2023/03/07 09:45:04;;;;;;;0.60;0.60;;;3.00;99.90;;;;;;4962653;28;20488;-84
2023/03/07 09:47:39;;;;;;;0.60;0.60;;;3.00;99.90;;;;;;4951355;28;20368;-84
2023/03/07 09:50:22;;;;;;;0.60;0.60;;;3.00;99.90;;;;;;4952291;28;20391;-83
2023/03/07 09:52:51;;;;;;;0.70;0.70;;;2.90;99.90;;;;;;4945060;28;20071;-83
2023/03/07 09:55:19;;;;;;;0.70;0.70;;;3.60;99.90;;;;;;4961629;28;20050;-84
2023/03/07 09:57:54;;;;;;;0.70;0.70;;;2.80;99.90;;;;;;4944495;28;20042;-83
2023/03/07 10:00:30;;;;;;;0.60;0.60;;;2.70;99.90;;;;;;4946389;28;20591;-83
2023/03/07 10:03:26;;;;;;;0.70;0.70;;;2.70;99.90;;;;;;4934069;28;20131;-83
2023/03/07 10:05:56;;;;;;;0.80;0.80;;;2.70;99.90;;;;;;4960726;28;20053;-84
2023/03/07 10:08:30;;;;;;;0.60;0.60;;;2.70;99.90;;;;;;4938377;28;20036;-84
2023/03/07 10:11:03;;;;;;;0.80;0.80;;;2.70;99.90;;;;;;4968027;28;20055;-83
2023/03/07 10:13:53;;;;;;;0.60;0.60;;;2.80;99.90;;;;;;4947445;28;20719;-83
2023/03/07 10:16:40;;;;;;;0.70;0.70;;;2.80;99.90;;;;;;4959324;28;20043;-84
2023/03/07 10:19:30;;;;;;;0.70;0.70;;;2.90;99.90;;;;;;4970609;28;20122;-84
2023/03/07 10:22:26;;;;;;;0.60;0.60;;;2.90;99.90;;;;;;4951735;28;20047;-83
2023/03/07 10:24:59;;;;;;;0.60;0.60;;;2.90;99.90;;;;;;4974790;28;20069;-85
2023/03/07 10:27:28;;;;;;;0.70;0.70;;;3.00;99.90;;;;;;4964139;28;20809;-84
2023/03/07 10:29:57;;;;;;;0.70;0.70;;;3.10;99.90;;;;;;4967666;28;20059;-83
2023/03/07 10:32:40;;;;;;;0.63;0.63;;;3.20;99.90;;;;;;4951652;28;20495;-84
2023/03/07 10:35:19;;;;;;;0.80;0.80;;;3.20;99.90;;;;;;4961369;28;20035;-84
2023/03/07 10:37:51;;;;;;;0.63;0.63;;;3.20;99.90;;;;;;4939466;28;20035;-83
2023/03/07 10:40:32;;;;;;;0.60;0.60;;;4.30;99.90;;;;;;4953195;28;20042;-83
2023/03/07 10:42:59;;;;;;;0.63;0.63;;;3.20;99.90;;;;;;4957170;28;20086;-83
2023/03/07 10:45:28;;;;;;;0.63;0.63;;;3.20;99.90;;;;;;4960418;28;20062;-84
2023/03/07 10:47:54;;;;;;;0.60;0.60;;;3.20;99.90;;;;;;4951242;28;20115;-84
2023/03/07 10:50:32;;;;;;;0.65;0.65;;;3.30;99.90;;;;;;4951629;28;20043;-84
2023/03/07 10:53:01;;;;;;;0.60;0.60;;;3.40;99.90;;;;;;4965493;28;20043;-83
2023/03/07 10:55:42;;;;;;;0.60;0.60;;;3.50;99.90;;;;;;4971653;28;20045;-84
2023/03/07 10:58:19;;;;;;;0.60;0.60;;;3.70;99.90;;;;;;4966631;28;20141;-83
2023/03/07 11:01:00;;;;;;;0.60;0.60;;;3.80;99.90;;;;;;4960987;28;20062;-84
2023/03/07 11:03:40;;;;;;;0.70;0.70;;;3.90;99.90;;;;;;4950729;28;20054;-84
2023/03/07 11:06:09;;;;;;;0.60;0.60;;;4.10;99.90;;;;;;4951750;28;20039;-83
2023/03/07 11:08:35;;;;;;;0.60;0.60;;;4.20;99.90;;;;;;4963365;28;20047;-84
2023/03/07 11:11:04;;;;;;;0.75;0.75;;;4.30;99.90;;;;;;4945361;28;20066;-84
2023/03/07 11:13:30;;;;;;;0.70;0.70;;;4.30;99.90;;;;;;4946790;28;20447;-84
2023/03/07 11:16:20;;;;;;;0.68;0.68;;;4.50;99.90;;;;;;4963836;28;20047;-85
2023/03/07 11:18:46;;;;;;;0.60;0.60;;;4.70;99.90;;;;;;4944589;28;20054;-84
2023/03/07 11:21:33;;;;;;;0.60;0.60;;;5.00;99.90;;;;;;4936552;28;20050;-83
2023/03/07 11:24:24;;;;;;;0.60;0.60;;;5.40;99.90;;;;;;4941333;28;20038;-83
2023/03/07 11:26:53;;;;;;;0.40;0.40;;;5.50;99.90;;;;;;4949052;28;20568;-83
2023/03/07 11:29:19;;;;;;;0.50;0.50;;;5.40;99.90;;;;;;4966779;28;20043;-84
2023/03/07 11:32:03;;;;;;;0.60;0.60;;;5.10;99.90;;;;;;4933176;28;20044;-82
2023/03/07 11:34:41;;;;;;;0.50;0.50;;;4.40;99.90;;;;;;4957377;28;20050;-82
2023/03/07 11:37:22;;;;;;;0.50;0.50;;;3.80;99.90;;;;;;4971300;28;20118;-82
2023/03/07 11:40:01;;;;;;;0.60;0.60;;;3.40;99.90;;;;;;4965523;28;20045;-84
2023/03/07 11:42:36;;;;;;;0.60;0.60;;;3.20;99.90;;;;;;4967406;28;20042;-83
2023/03/07 11:45:40;;;;;;;0.70;0.70;;;3.10;99.90;;;;;;4952093;28;20058;-83
2023/03/07 11:48:25;;;;;;;0.50;0.50;;;3.10;99.90;;;;;;4962516;28;20043;-83
2023/03/07 11:50:58;;;;;;;0.70;0.70;;;3.20;99.90;;;;;;4944422;28;20047;-83
2023/03/07 11:53:42;;;;;;;0.70;0.70;;;3.20;99.90;;;;;;4945559;28;20117;-83
2023/03/07 11:56:28;;;;;;;0.60;0.60;;;3.20;99.90;;;;;;4959494;28;20683;-82
2023/03/07 11:59:31;;;;;;;0.68;0.68;;;3.20;99.90;;;;;;4946242;28;20042;-82
2023/03/07 12:02:01;;;;;;;0.60;0.60;;;3.10;99.90;;;;;;4962413;28;20062;-81
2023/03/07 12:04:36;;;;;;;0.60;0.60;;;3.10;99.90;;;;;;4948932;28;20045;-83
2023/03/07 12:07:09;;;;;;;0.70;0.70;;;3.50;99.90;;;;;;4940128;28;20468;-82
2023/03/07 12:09:40;;;;;;;0.50;0.50;;;3.40;99.90;;;;;;4956938;28;20084;-81
2023/03/07 12:12:29;;;;;;;0.60;0.60;;;3.60;99.90;;;;;;4946584;28;20053;-83
2023/03/07 12:15:38;;;;;;;0.70;0.70;;;3.80;99.90;;;;;;4955640;28;20735;-82
2023/03/07 12:18:16;;;;;;;0.60;0.60;;;4.00;99.90;;;;;;4945615;28;20752;-83
2023/03/07 12:21:15;;;;;;;0.60;0.60;;;4.10;99.90;;;;;;4968487;28;20045;-82
2023/03/07 12:23:46;;;;;;;0.60;0.60;;;4.30;99.90;;;;;;4944720;28;20039;-82
2023/03/07 12:26:34;;;;;;;0.60;0.60;;;4.50;99.90;;;;;;4945966;28;20126;-82
2023/03/07 12:29:18;;;;;;;0.65;0.65;;;5.40;99.90;;;;;;4961767;28;20050;-84
2023/03/07 12:31:49;;;;;;;0.60;0.60;;;5.00;99.90;;;;;;4946476;28;20035;-84
2023/03/07 12:34:38;;;;;;;0.63;0.63;;;5.00;99.90;;;;;;4958769;28;20069;-83
2023/03/07 12:37:11;;;;;;;0.57;0.57;;;5.20;99.90;;;;;;4963091;28;20484;-83
2023/03/07 12:39:43;;;;;;;0.70;0.70;;;5.30;99.90;;;;;;4966661;28;20045;-83
2023/03/07 12:42:21;;;;;;;0.60;0.60;;;5.30;99.90;;;;;;4964156;28;20046;-83
2023/03/07 12:44:57;;;;;;;0.70;0.70;;;5.40;99.90;;;;;;4974643;28;20051;-84
2023/03/07 12:48:04;;;;;;;0.60;0.60;;;5.60;99.90;;;;;;4972664;28;20058;-83
2023/03/07 12:50:40;;;;;;;0.60;0.60;;;5.60;99.90;;;;;;4968628;28;20045;-83
2023/03/07 12:53:36;;;;;;;0.60;0.60;;;5.70;99.90;;;;;;4942285;28;20046;-84
2023/03/07 12:56:24;;;;;;;0.57;0.57;;;5.80;99.90;;;;;;4964301;28;20128;-83
2023/03/07 12:59:03;;;;;;;0.50;0.50;;;5.90;99.90;;;;;;4966030;28;20071;-84
2023/03/07 13:01:42;;;;;;;0.60;0.60;;;5.90;99.90;;;;;;4980158;28;20050;-83
2023/03/07 13:04:14;;;;;;;0.60;0.60;;;5.90;99.90;;;;;;4947948;28;20399;-83
2023/03/07 13:06:40;;;;;;;0.60;0.60;;;5.80;99.90;;;;;;4962453;28;20442;-83
2023/03/07 13:09:13;;;;;;;0.60;0.60;;;5.90;99.90;;;;;;4933443;28;20129;-83
2023/03/07 13:12:11;;;;;;;0.60;0.60;;;5.90;99.90;;;;;;4950937;28;20112;-84
2023/03/07 13:14:42;;;;;;;0.63;0.63;;;5.80;99.90;;;;;;4975594;28;20619;-84